Pernille — 5BNZ2 — position and weather

sailwx.info

Track history (hours):
 
Tides and Currents Weather Stations Pressure Air Temp Water Temp Dewpoint Dewpoint Depression Visibility Wind Speed Wind Dir Waves Ship Positions

Pernille

Last reported at 2017-Jan-18 19:33 UTC. Time now 2017-Jan-22 05:47 UTC.
Position N 56°05' E 012°37'.

Length 83 m; draft 5.3 m.

Type: Cargo ship. MMSI: 212662000.

Date/timePositionNaut miles runAvg speedWind from/ knotsBaromVisibWave heightAir tempDewpointWater temp
2017-Jan-18 19:33N 56°05' E 012°37'1211.6
2017-Jan-18 18:33N 55°54' E 012°44'1211.5
2017-Jan-18 17:33N 55°43' E 012°41'1010.1
2017-Jan-18 16:33N 55°33' E 012°43'1110.6
2017-Jan-18 15:33N 55°22' E 012°41'8 8.5
2017-Jan-18 14:33N 55°16' E 012°52'18410.2
2017-Jan-17 20:30N 54°55' E 018°11'1011.1
2017-Jan-17 19:33N 54°55' E 018°29'1110.8
2017-Jan-17 18:33N 54°53' E 018°48'1111.4
2017-Jan-17 17:33N 54°50' E 019°07'1110.9
2017-Jan-17 16:34N 54°48' E 019°25'  
2017-Jan-15 00:14N 54°39' E 019°48'9 1.6
2017-Jan-14 18:25N 54°45' E 019°34'1011.8
2017-Jan-14 17:33N 54°48' E 019°18'1111.6
2017-Jan-14 16:33N 54°51' E 018°59'1211.5
2017-Jan-14 15:33N 54°55' E 018°40'1211.6
2017-Jan-14 14:33N 54°55' E 018°20'18311.2
2017-Jan-13 22:17N 54°43' E 013°03'911.9
2017-Jan-13 21:33N 54°42' E 012°48'2411.4
2017-Jan-13 19:28N 54°28' E 012°15'1011.3
2017-Jan-13 18:32N 54°24' E 011°58'1111.6
2017-Jan-13 17:33N 54°26' E 011°39'1211.9
2017-Jan-13 16:33N 54°32' E 011°20'1111.4
2017-Jan-13 15:33N 54°34' E 011°01'1111.5
2017-Jan-13 14:33N 54°33' E 010°42'56 6.8
2017-Jan-13 06:21N 54°05' E 009°19'3 3.4
2017-Jan-13 05:33N 54°02' E 009°18'6 5.8
2017-Jan-13 04:30N 53°56' E 009°13'3 3.5
2017-Jan-13 03:31N 53°54' E 009°09'0 0.0
2017-Jan-13 02:34N 53°54' E 009°09'1 0.9
2017-Jan-13 01:34N 53°53' E 009°08'8 8.2
2017-Jan-13 00:34N 53°51' E 008°55'1110.6
2017-Jan-12 23:33N 53°56' E 008°40'1111.4
2017-Jan-12 22:33N 53°59' E 008°21'1211.8
2017-Jan-12 21:33N 53°57' E 008°02'5 5.3
2017-Jan-12 20:33N 53°52' E 008°07'8 8.0
2017-Jan-12 19:33N 53°45' E 008°13'1111.4
2017-Jan-12 18:33N 53°38' E 008°28'7 7.2
2017-Jan-12 17:33N 53°32' E 008°35'2 2.0
2017-Jan-12 16:31N 53°30' E 008°35'0 0.0
2017-Jan-12 15:31N 53°30' E 008°35'0 0.0
2017-Jan-12 14:31N 53°30' E 008°35'0 0.0
2017-Jan-12 13:31N 53°30' E 008°35'0 0.0
2017-Jan-12 12:31N 53°30' E 008°35'0 0.0
2017-Jan-12 11:31N 53°30' E 008°35'0 0.0
2017-Jan-12 10:31N 53°30' E 008°35'0 0.0
2017-Jan-12 09:31N 53°30' E 008°35'0 0.0
2017-Jan-12 08:31N 53°30' E 008°35'0 0.0
2017-Jan-12 07:28N 53°30' E 008°35'0 0.0
2017-Jan-12 06:31N 53°30' E 008°35'0 0.0
2017-Jan-12 05:28N 53°30' E 008°35'0 0.0
2017-Jan-12 04:31N 53°30' E 008°35'0 0.0
2017-Jan-12 03:31N 53°30' E 008°35'0 0.0
2017-Jan-12 02:31N 53°30' E 008°35'0 0.0
2017-Jan-12 01:31N 53°30' E 008°35'0 0.0
2017-Jan-12 00:31N 53°30' E 008°35'0 0.0
2017-Jan-11 23:28N 53°30' E 008°35'0 0.0
2017-Jan-11 22:31N 53°30' E 008°35'0 0.0
2017-Jan-11 21:31N 53°30' E 008°35'0 0.0
2017-Jan-11 20:28N 53°30' E 008°35'0 0.0
2017-Jan-11 19:31N 53°30' E 008°35'0 0.0
2017-Jan-11 18:31N 53°30' E 008°35'0 0.0
2017-Jan-11 17:31N 53°30' E 008°35'0 0.0
2017-Jan-11 16:31N 53°30' E 008°35'0 0.0
2017-Jan-11 15:31N 53°30' E 008°35'0 0.0
2017-Jan-11 14:31N 53°30' E 008°35'0 0.0
2017-Jan-11 13:31N 53°30' E 008°35'0 0.0
2017-Jan-11 12:28N 53°30' E 008°35'0 0.0
2017-Jan-11 11:31N 53°30' E 008°35'0 0.0
2017-Jan-11 10:28N 53°30' E 008°35'0 0.0
2017-Jan-11 09:31N 53°30' E 008°35'0 0.0
2017-Jan-11 08:31N 53°30' E 008°35'0 0.0
2017-Jan-11 07:31N 53°30' E 008°35'0 0.0
2017-Jan-11 06:31N 53°30' E 008°35'0 0.0
2017-Jan-11 05:31N 53°30' E 008°35'0 0.0
2017-Jan-11 04:31N 53°30' E 008°35'0 0.0
2017-Jan-11 03:31N 53°30' E 008°35'0 0.0
2017-Jan-11 02:31N 53°30' E 008°35'0 0.0
2017-Jan-11 01:28N 53°30' E 008°35'0 0.0
2017-Jan-11 00:31N 53°30' E 008°35'0 0.0
2017-Jan-10 23:31N 53°30' E 008°35'0 0.0
2017-Jan-10 22:31N 53°30' E 008°35'0 0.0
2017-Jan-10 21:31N 53°30' E 008°35'0 0.0
2017-Jan-10 20:31N 53°30' E 008°35'0 0.0
2017-Jan-10 19:31N 53°30' E 008°35'0 0.0
2017-Jan-10 18:32N 53°30' E 008°35'2 2.1
2017-Jan-10 17:33N 53°32' E 008°35'4 4.5
2017-Jan-10 16:33N 53°36' E 008°31'6 6.2
2017-Jan-10 15:33N 53°40' E 008°23'6 6.4
2017-Jan-10 14:33N 53°44' E 008°15'7 6.5
2017-Jan-10 13:33N 53°49' E 008°07'6 6.1
2017-Jan-10 12:31N 53°51' E 007°57'6 6.4
2017-Jan-10 11:31N 53°53' E 007°47'53 7.2
2017-Jan-10 04:04N 54°45' E 007°26'3 3.3
2017-Jan-10 03:07N 54°48' E 007°26'2 3.0
2017-Jan-10 02:33N 54°50' E 007°26'3 2.8
2017-Jan-10 01:33N 54°52' E 007°27'3 2.8
2017-Jan-10 00:34N 54°55' E 007°29'3 2.6
2017-Jan-09 23:34N 54°57' E 007°30'3 2.6
2017-Jan-09 22:33N 55°00' E 007°30'3 2.9
2017-Jan-09 21:33N 55°03' E 007°31'4 3.6
2017-Jan-09 20:34N 55°06' E 007°35'5 5.2
2017-Jan-09 19:33N 55°09' E 007°42'7 6.6
2017-Jan-09 18:33N 55°13' E 007°51'9 8.8
2017-Jan-09 17:33N 55°19' E 008°02'9 9.2
2017-Jan-09 16:33N 55°26' E 008°14'8 7.5
2017-Jan-09 15:33N 55°27' E 008°27'0 0.0
2017-Jan-09 14:12N 55°27' E 008°27'0 0.0
2017-Jan-09 13:27N 55°27' E 008°27'0 0.0
2017-Jan-09 12:27N 55°27' E 008°27'0 0.0
2017-Jan-09 11:27N 55°27' E 008°27'0 0.0
2017-Jan-09 10:30N 55°27' E 008°27'0 0.0
2017-Jan-09 09:27N 55°27' E 008°27'0 0.0
2017-Jan-09 08:33N 55°27' E 008°27'0 0.0
2017-Jan-09 07:33N 55°27' E 008°27'0 0.0
2017-Jan-09 06:33N 55°27' E 008°27'0 0.0
2017-Jan-09 05:33N 55°27' E 008°27'0 0.0
2017-Jan-09 04:21N 55°27' E 008°27'0 0.0
2017-Jan-09 03:33N 55°27' E 008°27'0 0.0
2017-Jan-09 02:24N 55°27' E 008°27'0 0.0
2017-Jan-09 01:24N 55°27' E 008°27'0 0.0
2017-Jan-09 00:09N 55°27' E 008°27'0 0.0
2017-Jan-08 23:27N 55°27' E 008°27'0 0.0
2017-Jan-08 21:09N 55°27' E 008°27'0 0.0
2017-Jan-08 20:30N 55°27' E 008°27'  
Track history (hours):
 
Tides and Currents Weather Stations Pressure Air Temp Water Temp Dewpoint Dewpoint Depression Visibility Wind Speed Wind Dir Waves Ship Positions

Pernille

Last reported at 2017-Jan-18 19:33 UTC. Time now 2017-Jan-22 05:47 UTC.
Position N 56°05' E 012°37'.

Length 83 m; draft 5.3 m.

Type: Cargo ship. MMSI: 212662000.

Date/timePositionNaut miles runAvg speedWind from/ knotsBaromVisibWave heightAir tempDewpointWater temp
2017-Jan-18 19:33N 56°05' E 012°37'1211.6
2017-Jan-18 18:33N 55°54' E 012°44'1211.5
2017-Jan-18 17:33N 55°43' E 012°41'1010.1
2017-Jan-18 16:33N 55°33' E 012°43'1110.6
2017-Jan-18 15:33N 55°22' E 012°41'8 8.5
2017-Jan-18 14:33N 55°16' E 012°52'18410.2
2017-Jan-17 20:30N 54°55' E 018°11'1011.1
2017-Jan-17 19:33N 54°55' E 018°29'1110.8
2017-Jan-17 18:33N 54°53' E 018°48'1111.4
2017-Jan-17 17:33N 54°50' E 019°07'1110.9
2017-Jan-17 16:34N 54°48' E 019°25'  
2017-Jan-15 00:14N 54°39' E 019°48'9 1.6
2017-Jan-14 18:25N 54°45' E 019°34'1011.8
2017-Jan-14 17:33N 54°48' E 019°18'1111.6
2017-Jan-14 16:33N 54°51' E 018°59'1211.5
2017-Jan-14 15:33N 54°55' E 018°40'1211.6
2017-Jan-14 14:33N 54°55' E 018°20'18311.2
2017-Jan-13 22:17N 54°43' E 013°03'911.9
2017-Jan-13 21:33N 54°42' E 012°48'2411.4
2017-Jan-13 19:28N 54°28' E 012°15'1011.3
2017-Jan-13 18:32N 54°24' E 011°58'1111.6
2017-Jan-13 17:33N 54°26' E 011°39'1211.9
2017-Jan-13 16:33N 54°32' E 011°20'1111.4
2017-Jan-13 15:33N 54°34' E 011°01'1111.5
2017-Jan-13 14:33N 54°33' E 010°42'56 6.8
2017-Jan-13 06:21N 54°05' E 009°19'3 3.4
2017-Jan-13 05:33N 54°02' E 009°18'6 5.8
2017-Jan-13 04:30N 53°56' E 009°13'3 3.5
2017-Jan-13 03:31N 53°54' E 009°09'0 0.0
2017-Jan-13 02:34N 53°54' E 009°09'1 0.9
2017-Jan-13 01:34N 53°53' E 009°08'8 8.2
2017-Jan-13 00:34N 53°51' E 008°55'1110.6
2017-Jan-12 23:33N 53°56' E 008°40'1111.4
2017-Jan-12 22:33N 53°59' E 008°21'1211.8
2017-Jan-12 21:33N 53°57' E 008°02'5 5.3
2017-Jan-12 20:33N 53°52' E 008°07'8 8.0
2017-Jan-12 19:33N 53°45' E 008°13'1111.4
2017-Jan-12 18:33N 53°38' E 008°28'7 7.2
2017-Jan-12 17:33N 53°32' E 008°35'2 2.0
2017-Jan-12 16:31N 53°30' E 008°35'0 0.0
2017-Jan-12 15:31N 53°30' E 008°35'0 0.0
2017-Jan-12 14:31N 53°30' E 008°35'0 0.0
2017-Jan-12 13:31N 53°30' E 008°35'0 0.0
2017-Jan-12 12:31N 53°30' E 008°35'0 0.0
2017-Jan-12 11:31N 53°30' E 008°35'0 0.0
2017-Jan-12 10:31N 53°30' E 008°35'0 0.0
2017-Jan-12 09:31N 53°30' E 008°35'0 0.0
2017-Jan-12 08:31N 53°30' E 008°35'0 0.0
2017-Jan-12 07:28N 53°30' E 008°35'0 0.0
2017-Jan-12 06:31N 53°30' E 008°35'0 0.0
2017-Jan-12 05:28N 53°30' E 008°35'0 0.0
2017-Jan-12 04:31N 53°30' E 008°35'0 0.0
2017-Jan-12 03:31N 53°30' E 008°35'0 0.0
2017-Jan-12 02:31N 53°30' E 008°35'0 0.0
2017-Jan-12 01:31N 53°30' E 008°35'0 0.0
2017-Jan-12 00:31N 53°30' E 008°35'0 0.0
2017-Jan-11 23:28N 53°30' E 008°35'0 0.0
2017-Jan-11 22:31N 53°30' E 008°35'0 0.0
2017-Jan-11 21:31N 53°30' E 008°35'0 0.0
2017-Jan-11 20:28N 53°30' E 008°35'0 0.0
2017-Jan-11 19:31N 53°30' E 008°35'0 0.0
2017-Jan-11 18:31N 53°30' E 008°35'0 0.0
2017-Jan-11 17:31N 53°30' E 008°35'0 0.0
2017-Jan-11 16:31N 53°30' E 008°35'0 0.0
2017-Jan-11 15:31N 53°30' E 008°35'0 0.0
2017-Jan-11 14:31N 53°30' E 008°35'0 0.0
2017-Jan-11 13:31N 53°30' E 008°35'0 0.0
2017-Jan-11 12:28N 53°30' E 008°35'0 0.0
2017-Jan-11 11:31N 53°30' E 008°35'0 0.0
2017-Jan-11 10:28N 53°30' E 008°35'0 0.0
2017-Jan-11 09:31N 53°30' E 008°35'0 0.0
2017-Jan-11 08:31N 53°30' E 008°35'0 0.0
2017-Jan-11 07:31N 53°30' E 008°35'0 0.0
2017-Jan-11 06:31N 53°30' E 008°35'0 0.0
2017-Jan-11 05:31N 53°30' E 008°35'0 0.0
2017-Jan-11 04:31N 53°30' E 008°35'0 0.0
2017-Jan-11 03:31N 53°30' E 008°35'0 0.0
2017-Jan-11 02:31N 53°30' E 008°35'0 0.0
2017-Jan-11 01:28N 53°30' E 008°35'0 0.0
2017-Jan-11 00:31N 53°30' E 008°35'0 0.0
2017-Jan-10 23:31N 53°30' E 008°35'0 0.0
2017-Jan-10 22:31N 53°30' E 008°35'0 0.0
2017-Jan-10 21:31N 53°30' E 008°35'0 0.0
2017-Jan-10 20:31N 53°30' E 008°35'0 0.0
2017-Jan-10 19:31N 53°30' E 008°35'0 0.0
2017-Jan-10 18:32N 53°30' E 008°35'2 2.1
2017-Jan-10 17:33N 53°32' E 008°35'4 4.5
2017-Jan-10 16:33N 53°36' E 008°31'6 6.2
2017-Jan-10 15:33N 53°40' E 008°23'6 6.4
2017-Jan-10 14:33N 53°44' E 008°15'7 6.5
2017-Jan-10 13:33N 53°49' E 008°07'6 6.1
2017-Jan-10 12:31N 53°51' E 007°57'6 6.4
2017-Jan-10 11:31N 53°53' E 007°47'53 7.2
2017-Jan-10 04:04N 54°45' E 007°26'3 3.3
2017-Jan-10 03:07N 54°48' E 007°26'2 3.0
2017-Jan-10 02:33N 54°50' E 007°26'3 2.8
2017-Jan-10 01:33N 54°52' E 007°27'3 2.8
2017-Jan-10 00:34N 54°55' E 007°29'3 2.6
2017-Jan-09 23:34N 54°57' E 007°30'3 2.6
2017-Jan-09 22:33N 55°00' E 007°30'3 2.9
2017-Jan-09 21:33N 55°03' E 007°31'4 3.6
2017-Jan-09 20:34N 55°06' E 007°35'5 5.2
2017-Jan-09 19:33N 55°09' E 007°42'7 6.6
2017-Jan-09 18:33N 55°13' E 007°51'9 8.8
2017-Jan-09 17:33N 55°19' E 008°02'9 9.2
2017-Jan-09 16:33N 55°26' E 008°14'8 7.5
2017-Jan-09 15:33N 55°27' E 008°27'0 0.0
2017-Jan-09 14:12N 55°27' E 008°27'0 0.0
2017-Jan-09 13:27N 55°27' E 008°27'0 0.0
2017-Jan-09 12:27N 55°27' E 008°27'0 0.0
2017-Jan-09 11:27N 55°27' E 008°27'0 0.0
2017-Jan-09 10:30N 55°27' E 008°27'0 0.0
2017-Jan-09 09:27N 55°27' E 008°27'0 0.0
2017-Jan-09 08:33N 55°27' E 008°27'0 0.0
2017-Jan-09 07:33N 55°27' E 008°27'0 0.0
2017-Jan-09 06:33N 55°27' E 008°27'0 0.0
2017-Jan-09 05:33N 55°27' E 008°27'0 0.0
2017-Jan-09 04:21N 55°27' E 008°27'0 0.0
2017-Jan-09 03:33N 55°27' E 008°27'0 0.0
2017-Jan-09 02:24N 55°27' E 008°27'0 0.0
2017-Jan-09 01:24N 55°27' E 008°27'0 0.0
2017-Jan-09 00:09N 55°27' E 008°27'0 0.0
2017-Jan-08 23:27N 55°27' E 008°27'0 0.0
2017-Jan-08 21:09N 55°27' E 008°27'0 0.0
2017-Jan-08 20:30N 55°27' E 008°27'  

Dump ship's entire track history